Time;durP1;ratioP1;P1;durP2;ratioP2;P2;SDS_P1;SDS_P2;PMS_P1;PMS_P2;Temp;Humidity;BMP_temperature;BMP_pressure;BME280_temperature;BME280_humidity;BME280_pressure;Samples;Min_cycle;Max_cycle;Signal;HPM_P1;HPM_P2
2022/12/11 00:01:40;;;;;;;20.93;15.47;;;;;;;-1.64;100.00;97481.63;5096494;28;20474;-72
2022/12/11 00:04:06;;;;;;;20.20;14.63;;;;;;;-1.68;100.00;97475.91;5096515;28;20442;-72
2022/12/11 00:06:32;;;;;;;19.80;15.43;;;;;;;-1.71;100.00;97478.81;5096464;28;20436;-72
2022/12/11 00:08:59;;;;;;;18.23;15.17;;;;;;;-1.80;100.00;97477.16;5096103;28;20440;-72
2022/12/11 00:11:25;;;;;;;19.70;15.00;;;;;;;-1.89;100.00;97467.69;5095967;28;20460;-72
2022/12/11 00:13:51;;;;;;;20.70;15.83;;;;;;;-1.82;100.00;97476.50;5096163;28;20451;-72
2022/12/11 00:16:18;;;;;;;19.87;14.93;;;;;;;-1.84;100.00;97472.44;5096299;28;20432;-72
2022/12/11 00:18:44;;;;;;;19.23;14.63;;;;;;;-1.89;100.00;97474.69;5095627;28;20482;-72
2022/12/11 00:21:14;;;;;;;18.90;13.67;;;;;;;-1.95;100.00;97475.28;5095628;28;20561;-72
2022/12/11 00:23:41;;;;;;;17.93;14.80;;;;;;;-1.96;100.00;97473.66;5095702;28;20832;-72
2022/12/11 00:26:11;;;;;;;18.47;15.03;;;;;;;-1.86;100.00;97475.19;5096025;28;20437;-72
2022/12/11 00:28:38;;;;;;;19.90;15.53;;;;;;;-1.80;100.00;97473.75;5095053;28;20466;-72
2022/12/11 00:31:11;;;;;;;19.93;14.67;;;;;;;-1.81;100.00;97480.75;5095619;28;20462;-72
2022/12/11 00:33:37;;;;;;;21.47;16.07;;;;;;;-1.64;100.00;97477.25;5095873;28;20439;-72
2022/12/11 00:36:04;;;;;;;20.60;14.83;;;;;;;-1.62;100.00;97472.66;5095557;28;20436;-72
2022/12/11 00:38:30;;;;;;;17.90;14.47;;;;;;;-1.56;100.00;97466.84;5095483;28;20446;-72
2022/12/11 00:41:00;;;;;;;19.33;13.77;;;;;;;-1.47;100.00;97462.47;5095750;28;20458;-72
2022/12/11 00:43:27;;;;;;;20.67;14.80;;;;;;;-1.38;100.00;97459.72;5095489;28;20930;-72
2022/12/11 00:45:53;;;;;;;17.70;14.53;;;;;;;-1.40;100.00;97466.88;5095691;28;20436;-72
2022/12/11 00:48:19;;;;;;;19.97;14.67;;;;;;;-1.36;100.00;97462.97;5095593;28;20432;-72
2022/12/11 00:50:46;;;;;;;21.00;15.13;;;;;;;-1.27;100.00;97471.63;5095345;28;20460;-72
2022/12/11 00:53:13;;;;;;;19.67;15.27;;;;;;;-1.22;100.00;97467.56;5095614;28;20425;-72
2022/12/11 00:55:41;;;;;;;19.13;15.17;;;;;;;-1.10;100.00;97465.47;5095240;28;20919;-72
2022/12/11 00:58:08;;;;;;;18.87;15.40;;;;;;;-1.04;100.00;97459.63;5096001;28;20443;-72
2022/12/11 01:00:35;;;;;;;18.90;15.53;;;;;;;-1.13;100.00;97468.44;5095016;28;20982;-72
2022/12/11 01:03:02;;;;;;;19.00;15.70;;;;;;;-1.00;100.00;97468.75;5095302;28;20432;-72
2022/12/11 01:05:29;;;;;;;18.03;14.87;;;;;;;-1.02;100.00;97479.38;5095302;28;20204;-72
2022/12/11 01:07:55;;;;;;;18.90;15.63;;;;;;;-1.00;100.00;97477.41;5095254;28;20200;-72
2022/12/11 01:10:24;;;;;;;20.23;14.30;;;;;;;-0.97;100.00;97477.09;5094984;28;20442;-72
2022/12/11 01:12:58;;;;;;;19.17;14.17;;;;;;;-0.94;100.00;97483.78;5095207;28;20207;-72
2022/12/11 01:15:28;;;;;;;19.07;15.03;;;;;;;-0.85;100.00;97482.81;5094766;28;20954;-72
2022/12/11 01:17:55;;;;;;;19.43;14.80;;;;;;;-0.89;100.00;97482.28;5094716;28;20439;-72
2022/12/11 01:20:23;;;;;;;20.57;14.73;;;;;;;-0.81;100.00;97497.94;5095207;28;20231;-72
2022/12/11 01:22:53;;;;;;;19.27;14.23;;;;;;;-0.80;100.00;97496.97;5095549;28;20676;-72
2022/12/11 01:25:20;;;;;;;17.53;14.63;;;;;;;-0.84;100.00;97502.69;5094659;28;20659;-72
2022/12/11 01:27:46;;;;;;;19.00;14.50;;;;;;;-0.80;100.00;97504.00;5094925;28;20440;-72
2022/12/11 01:30:14;;;;;;;19.13;15.37;;;;;;;-0.82;100.00;97505.94;5094864;28;20196;-72
2022/12/11 01:32:40;;;;;;;18.83;14.83;;;;;;;-0.79;100.00;97501.22;5094769;28;20227;-72
2022/12/11 01:35:07;;;;;;;17.77;14.17;;;;;;;-0.74;100.00;97498.13;5094553;28;20436;-72
2022/12/11 01:37:34;;;;;;;19.00;14.97;;;;;;;-0.72;100.00;97496.97;5094182;28;20444;-72
2022/12/11 01:40:01;;;;;;;20.10;16.00;;;;;;;-0.84;100.00;97506.13;5093916;28;20219;-72
2022/12/11 01:42:28;;;;;;;21.10;16.80;;;;;;;-0.71;100.00;97506.44;5094532;28;20307;-72
2022/12/11 01:45:13;;;;;;;21.17;16.27;;;;;;;-0.96;100.00;97499.56;5094485;28;20257;-72
2022/12/11 01:47:40;;;;;;;19.70;15.90;;;;;;;-0.89;100.00;97500.56;5094177;28;20200;-72
2022/12/11 01:50:06;;;;;;;22.47;15.77;;;;;;;-0.86;100.00;97504.66;5094490;28;20291;-72
2022/12/11 01:52:33;;;;;;;21.13;16.80;;;;;;;-0.80;100.00;97504.78;5093903;28;20714;-72
2022/12/11 01:54:59;;;;;;;19.70;16.20;;;;;;;-0.61;100.00;97509.72;5094414;28;20207;-72
2022/12/11 01:57:26;;;;;;;21.93;16.80;;;;;;;-0.71;100.00;97506.44;5094675;28;20204;-72
2022/12/11 01:59:52;;;;;;;20.47;16.10;;;;;;;-0.66;100.00;97516.41;5094771;28;20228;-72
2022/12/11 02:02:29;;;;;;;20.63;16.33;;;;;;;-0.66;100.00;97506.78;5093909;28;20596;-72
2022/12/11 02:04:56;;;;;;;18.63;15.27;;;;;;;-0.73;100.00;97512.78;5094231;28;20191;-72
2022/12/11 02:07:23;;;;;;;23.03;16.63;;;;;;;-0.68;100.00;97513.94;5094249;28;20225;-72
2022/12/11 02:09:50;;;;;;;19.70;15.87;;;;;;;-0.66;100.00;97506.78;5094208;28;20563;-72
2022/12/11 02:12:56;;;;;;;19.67;15.30;;;;;;;-0.69;100.00;97509.72;5076197;28;20246;-72
2022/12/11 02:15:50;;;;;;;20.07;15.90;;;;;;;-0.68;100.00;97513.13;5090530;28;20215;-72
2022/12/11 02:18:31;;;;;;;21.93;16.07;;;;;;;-0.70;100.00;97522.94;5077525;28;20188;-72
2022/12/11 02:21:07;;;;;;;22.47;16.50;;;;;;;-0.68;100.00;97526.16;5093931;28;20232;-72
2022/12/11 02:24:12;;;;;;;20.40;15.53;;;;;;;-0.66;100.00;97519.00;5094007;28;20188;-72
2022/12/11 02:26:51;;;;;;;20.93;17.20;;;;;;;-0.70;100.00;97513.31;5037055;28;20214;-72
2022/12/11 02:29:22;;;;;;;22.20;15.93;;;;;;;-0.74;100.00;97519.84;5075720;28;20190;-72
2022/12/11 02:32:00;;;;;;;20.43;15.97;;;;;;;-0.64;100.00;97504.81;5093793;28;20228;-72
2022/12/11 02:34:41;;;;;;;20.27;15.57;;;;;;;-0.58;100.00;97501.56;5075945;28;20187;-72
2022/12/11 02:37:12;;;;;;;22.53;16.57;;;;;;;-0.61;100.00;97494.06;5093790;28;20198;-72
2022/12/11 02:39:42;;;;;;;22.60;16.37;;;;;;;-0.52;100.00;97503.53;5093704;28;20282;-72
2022/12/11 02:42:11;;;;;;;20.50;16.67;;;;;;;-0.46;100.00;97502.03;5075950;28;20219;-72
2022/12/11 02:44:38;;;;;;;20.43;15.97;;;;;;;-0.49;100.00;97508.41;5093693;28;20204;-72
2022/12/11 02:47:12;;;;;;;18.27;14.60;;;;;;;-0.56;100.00;97504.00;5093310;28;20666;-72
2022/12/11 02:49:41;;;;;;;20.17;15.37;;;;;;;-0.50;100.00;97504.16;5093712;28;20185;-72
2022/12/11 02:52:12;;;;;;;19.13;15.50;;;;;;;-0.52;100.00;97508.75;5092675;28;20242;-72
2022/12/11 02:54:41;;;;;;;17.70;13.37;;;;;;;-0.53;100.00;97509.69;5093664;28;20189;-72
2022/12/11 02:57:23;;;;;;;15.77;12.97;;;;;;;-0.52;100.00;97508.75;5093239;28;20214;-72
2022/12/11 02:59:50;;;;;;;15.77;12.37;;;;;;;-0.54;100.00;97504.66;5093440;28;20216;-72
2022/12/11 03:02:17;;;;;;;15.57;12.03;;;;;;;-0.43;100.00;97506.94;5093381;28;20220;-72
2022/12/11 03:04:45;;;;;;;15.07;11.70;;;;;;;-0.52;100.00;97503.53;5093495;28;20208;-72
2022/12/11 03:07:33;;;;;;;15.07;12.00;;;;;;;-0.49;100.00;97507.59;5075621;28;20206;-72
2022/12/11 03:10:00;;;;;;;15.03;12.47;;;;;;;-0.46;100.00;97504.66;5093953;28;20184;-72
2022/12/11 03:12:32;;;;;;;14.83;12.07;;;;;;;-0.52;100.00;97506.13;5092982;28;20223;-72
2022/12/11 03:15:01;;;;;;;13.67;11.87;;;;;;;-0.60;100.00;97502.69;5092861;28;20570;-72
2022/12/11 03:17:38;;;;;;;14.93;12.43;;;;;;;-0.54;100.00;97505.47;5093368;28;20210;-72
2022/12/11 03:20:19;;;;;;;13.63;12.13;;;;;;;-0.52;100.00;97502.69;5059424;28;20211;-72
2022/12/11 03:23:16;;;;;;;14.23;11.57;;;;;;;-0.55;100.00;97506.47;5093348;28;20277;-72
2022/12/11 03:25:54;;;;;;;14.87;12.50;;;;;;;-0.55;100.00;97498.63;5071689;28;20206;-72
2022/12/11 03:28:46;;;;;;;15.57;12.30;;;;;;;-0.60;100.00;97505.31;5092984;28;20199;-72
2022/12/11 03:31:28;;;;;;;15.57;13.13;;;;;;;-0.58;100.00;97511.19;5092858;28;20852;-72
2022/12/11 03:33:58;;;;;;;16.13;13.20;;;;;;;-0.59;100.00;97507.75;5076853;28;20184;-72
2022/12/11 03:36:30;;;;;;;16.10;13.13;;;;;;;-0.58;100.00;97508.59;5093184;28;20189;-72
2022/12/11 03:39:01;;;;;;;16.27;13.43;;;;;;;-0.59;100.00;97512.97;5093134;28;20192;-72
2022/12/11 03:41:31;;;;;;;17.07;13.80;;;;;;;-0.58;100.00;97504.16;5093099;28;20303;-72
2022/12/11 03:43:58;;;;;;;18.20;13.57;;;;;;;-0.54;100.00;97508.06;5093159;28;20201;-72
2022/12/11 03:46:31;;;;;;;16.90;13.70;;;;;;;-0.53;100.00;97504.47;5092761;28;20203;-72
2022/12/11 03:49:01;;;;;;;16.70;13.67;;;;;;;-0.65;100.00;97505.81;5093176;28;20224;-72
2022/12/11 03:51:30;;;;;;;17.17;13.83;;;;;;;-0.69;100.00;97506.28;5092730;28;20741;-72
2022/12/11 03:53:58;;;;;;;17.20;14.13;;;;;;;-0.72;100.00;97507.41;5093025;28;20237;-72
2022/12/11 03:56:28;;;;;;;17.20;13.63;;;;;;;-0.78;100.00;97512.47;5075108;28;20208;-72
2022/12/11 03:58:54;;;;;;;18.60;13.07;;;;;;;-0.80;100.00;97511.81;5093276;28;20204;-72
2022/12/11 04:01:21;;;;;;;17.37;13.77;;;;;;;-0.78;100.00;97502.84;5092857;28;20232;-72
2022/12/11 04:03:47;;;;;;;17.50;13.70;;;;;;;-0.70;100.00;97497.66;5093990;28;20667;-72
2022/12/11 04:06:14;;;;;;;19.07;14.30;;;;;;;-0.70;100.00;97495.03;5096376;28;20208;-72
2022/12/11 04:08:40;;;;;;;16.50;14.10;;;;;;;-0.67;100.00;97497.31;5096150;28;20575;-72
2022/12/11 04:15:00;;;;;;;20.70;15.10;;;;;;;-0.68;100.00;97493.06;5096138;28;20634;-72
2022/12/11 04:16:36;;;;;;;18.27;13.53;;;;;;;-0.80;100.00;97486.53;5095704;28;20208;-72
2022/12/11 04:24:31;;;;;;;15.73;12.33;;;;;;;-0.75;100.00;97476.44;5095951;28;20395;-72
2022/12/11 04:26:57;;;;;;;14.93;12.70;;;;;;;-0.78;100.00;97470.72;5095957;28;20440;-72
2022/12/11 04:29:24;;;;;;;14.73;11.40;;;;;;;-0.83;100.00;97468.59;5095947;28;20522;-72
2022/12/11 04:31:50;;;;;;;14.17;11.53;;;;;;;-0.76;100.00;97469.56;5095459;28;20234;-72
2022/12/11 04:34:17;;;;;;;13.17;10.70;;;;;;;-0.77;100.00;97467.16;5096510;28;20261;-72
2022/12/11 04:36:43;;;;;;;13.60;10.33;;;;;;;-0.85;100.00;97465.34;5095677;28;20234;-72
2022/12/11 04:39:09;;;;;;;12.70;9.43;;;;;;;-0.78;100.00;97468.94;5095675;28;20204;-72
2022/12/11 04:41:37;;;;;;;13.30;9.87;;;;;;;-0.82;100.00;97454.59;5095218;28;20708;-72
2022/12/11 04:44:04;;;;;;;11.63;9.30;;;;;;;-0.87;100.00;97458.66;5095516;28;20444;-72
2022/12/11 04:46:32;;;;;;;12.57;10.27;;;;;;;-0.91;100.00;97460.78;5095495;28;20438;-72
2022/12/11 04:48:59;;;;;;;13.30;9.93;;;;;;;-0.89;100.00;97444.97;5095544;28;20201;-72
2022/12/11 04:51:27;;;;;;;12.67;10.50;;;;;;;-0.96;100.00;97436.13;5095082;28;20228;-72
2022/12/11 04:53:54;;;;;;;12.60;9.83;;;;;;;-0.95;100.00;97441.19;5095545;28;20295;-72
2022/12/11 04:56:21;;;;;;;13.07;9.67;;;;;;;-0.95;100.00;97443.81;5095578;28;20200;-72
2022/12/11 04:58:48;;;;;;;12.33;10.03;;;;;;;-1.02;100.00;97450.66;5095167;28;20214;-73
2022/12/11 05:01:17;;;;;;;11.63;8.73;;;;;;;-0.97;100.00;97450.16;5095290;28;20238;-72
2022/12/11 05:03:44;;;;;;;11.30;9.07;;;;;;;-0.99;100.00;97465.97;5095369;28;20208;-72
2022/12/11 05:06:11;;;;;;;11.67;9.23;;;;;;;-0.98;100.00;97465.00;5094933;28;20214;-72
2022/12/11 05:08:40;;;;;;;10.70;8.80;;;;;;;-0.81;100.00;97466.66;5094904;28;20204;-72
2022/12/11 05:11:10;;;;;;;10.70;9.03;;;;;;;-0.86;100.00;97463.72;5094662;28;20573;-72
2022/12/11 05:13:37;;;;;;;11.13;9.33;;;;;;;-0.84;100.00;97463.56;5094974;28;20556;-72
2022/12/11 05:16:05;;;;;;;13.60;9.67;;;;;;;-0.93;100.00;97467.13;5094817;28;20440;-72
2022/12/11 05:18:31;;;;;;;12.07;9.83;;;;;;;-0.90;100.00;97461.59;5094867;28;20208;-72
2022/12/11 05:21:01;;;;;;;11.90;9.80;;;;;;;-0.89;100.00;97456.19;5094394;28;21016;-72
2022/12/11 05:23:28;;;;;;;10.63;9.53;;;;;;;-1.05;100.00;97453.59;5094631;28;20931;-72
2022/12/11 05:25:57;;;;;;;13.60;9.73;;;;;;;-1.06;100.00;97457.19;5094802;28;20203;-72
2022/12/11 05:28:24;;;;;;;12.73;9.80;;;;;;;-1.12;100.00;97455.19;5094766;28;20440;-72
2022/12/11 05:31:03;;;;;;;12.17;9.17;;;;;;;-1.21;100.00;97466.59;5094382;28;20456;-72
2022/12/11 05:33:30;;;;;;;14.67;9.57;;;;;;;-1.21;100.00;97466.59;5094799;28;20436;-72
2022/12/11 05:35:57;;;;;;;13.77;9.83;;;;;;;-1.09;100.00;97472.31;5094678;28;20561;-72
2022/12/11 05:38:24;;;;;;;14.67;9.83;;;;;;;-1.34;100.00;97473.25;5094690;28;20219;-72
2022/12/11 05:40:57;;;;;;;13.33;10.13;;;;;;;-1.45;100.00;97460.50;5094523;28;20480;-72
2022/12/11 05:43:24;;;;;;;11.87;10.10;;;;;;;-1.47;100.00;97459.84;5094301;28;20440;-72
2022/12/11 05:45:51;;;;;;;13.80;9.70;;;;;;;-1.51;100.00;97461.97;5094577;28;20527;-72
2022/12/11 05:48:17;;;;;;;14.63;10.60;;;;;;;-1.59;100.00;97458.50;5094497;28;20432;-72
2022/12/11 05:50:43;;;;;;;14.00;10.83;;;;;;;-1.65;100.00;97459.97;5094164;28;20463;-71
2022/12/11 05:53:10;;;;;;;15.00;11.13;;;;;;;-1.65;100.00;97462.59;5094388;28;20188;-72
2022/12/11 05:55:36;;;;;;;13.97;10.40;;;;;;;-1.42;100.00;97454.97;5094173;28;20207;-72
2022/12/11 05:58:03;;;;;;;14.87;11.73;;;;;;;-1.47;100.00;97460.69;5094068;28;20441;-72
2022/12/11 06:00:29;;;;;;;16.67;11.93;;;;;;;-1.57;100.00;97456.56;5094168;28;20476;-72
2022/12/11 06:02:55;;;;;;;18.93;13.33;;;;;;;-1.54;100.00;97457.06;5094154;28;20440;-72
2022/12/11 06:05:22;;;;;;;17.50;14.37;;;;;;;-1.66;100.00;97460.94;5094297;28;20444;-72
2022/12/11 06:07:48;;;;;;;18.40;13.57;;;;;;;-1.81;100.00;97457.28;5094106;28;20443;-72
2022/12/11 06:10:15;;;;;;;18.27;14.60;;;;;;;-1.87;100.00;97451.91;5094061;28;20506;-72
2022/12/11 06:12:41;;;;;;;20.17;15.90;;;;;;;-1.84;100.00;97454.19;5093941;28;20459;-72
2022/12/11 06:15:08;;;;;;;22.03;15.60;;;;;;;-1.88;100.00;97445.06;5093695;28;21008;-72
2022/12/11 06:17:34;;;;;;;22.77;16.40;;;;;;;-1.83;100.00;97451.44;5093986;28;20539;-72
2022/12/11 06:20:00;;;;;;;19.87;15.53;;;;;;;-1.90;100.00;97444.41;5093869;28;20476;-72
2022/12/11 06:22:27;;;;;;;19.50;15.17;;;;;;;-1.83;100.00;97440.19;5094313;28;20468;-72
2022/12/11 06:24:53;;;;;;;21.47;16.63;;;;;;;-1.85;100.00;97432.53;5093816;28;20877;-72
2022/12/11 06:27:19;;;;;;;19.23;14.97;;;;;;;-1.88;100.00;97439.84;5093093;28;20462;-72
2022/12/11 06:29:46;;;;;;;19.73;15.83;;;;;;;-1.86;100.00;97443.09;5093870;28;20444;-72
2022/12/11 06:32:13;;;;;;;19.77;15.17;;;;;;;-1.96;100.00;97447.63;5093292;28;20465;-72
2022/12/11 06:34:39;;;;;;;19.60;14.90;;;;;;;-2.07;100.00;97442.69;5093778;28;20791;-72
2022/12/11 06:37:06;;;;;;;19.43;15.13;;;;;;;-2.00;100.00;97428.91;5093606;28;20441;-72
2022/12/11 06:39:32;;;;;;;19.50;14.87;;;;;;;-2.12;100.00;97435.34;5093690;28;20440;-72
2022/12/11 06:41:58;;;;;;;18.50;15.23;;;;;;;-2.05;100.00;97432.94;5093573;28;20488;-72
2022/12/11 06:44:25;;;;;;;19.67;14.80;;;;;;;-2.03;100.00;97434.41;5093535;28;20440;-72
2022/12/11 06:46:51;;;;;;;19.67;14.87;;;;;;;-2.09;100.00;97429.84;5093617;28;20436;-72
2022/12/11 06:49:18;;;;;;;21.67;16.13;;;;;;;-2.11;100.00;97434.41;5093495;28;20439;-72
2022/12/11 06:51:44;;;;;;;20.80;15.20;;;;;;;-1.99;100.00;97437.53;5093101;28;20474;-72
2022/12/11 06:54:10;;;;;;;19.83;15.43;;;;;;;-1.97;100.00;97431.19;5093163;28;20446;-72
2022/12/11 06:56:37;;;;;;;20.70;15.90;;;;;;;-1.99;100.00;97434.94;5093482;28;20432;-72
2022/12/11 06:59:03;;;;;;;20.27;15.07;;;;;;;-2.09;100.00;97435.03;5093590;28;20432;-71
2022/12/11 07:01:30;;;;;;;18.37;14.53;;;;;;;-2.14;100.00;97445.09;5093401;28;20488;-72
2022/12/11 07:03:58;;;;;;;20.17;15.50;;;;;;;-2.18;100.00;97453.38;5093521;28;20439;-72
2022/12/11 07:06:27;;;;;;;21.23;15.77;;;;;;;-2.07;100.00;97458.31;5093432;28;20440;-72
2022/12/11 07:08:53;;;;;;;21.50;15.77;;;;;;;-2.06;100.00;97466.00;5093440;28;20444;-72
2022/12/11 07:11:21;;;;;;;21.50;15.57;;;;;;;-2.08;100.00;97467.91;5092970;28;20460;-72
2022/12/11 07:13:47;;;;;;;19.17;14.40;;;;;;;-1.95;100.00;97470.09;5093342;28;20441;-72
2022/12/11 07:16:16;;;;;;;17.93;14.57;;;;;;;-1.74;100.00;97468.72;5093347;28;20437;-72
2022/12/11 07:18:48;;;;;;;21.33;14.97;;;;;;;-1.75;100.00;97464.47;5093305;28;20446;-72
2022/12/11 07:21:14;;;;;;;19.80;14.43;;;;;;;-1.75;100.00;97461.06;5092860;28;20987;-72
2022/12/11 07:23:42;;;;;;;17.13;12.70;;;;;;;-1.81;100.00;97459.91;5092922;28;20446;-72
2022/12/11 07:26:11;;;;;;;16.80;13.83;;;;;;;-1.85;100.00;97471.59;5092988;28;20443;-72
2022/12/11 07:28:38;;;;;;;16.50;13.33;;;;;;;-1.77;100.00;97470.81;5093011;28;20444;-72
2022/12/11 07:31:08;;;;;;;16.73;13.37;;;;;;;-1.69;100.00;97465.66;5093228;28;20452;-72
2022/12/11 07:33:35;;;;;;;17.40;12.93;;;;;;;-1.67;100.00;97467.13;5092975;28;20431;-72
2022/12/11 07:36:03;;;;;;;16.30;12.43;;;;;;;-1.69;100.00;97471.69;5093043;28;20451;-72
2022/12/11 07:38:29;;;;;;;18.63;13.50;;;;;;;-1.68;100.00;97465.50;5095432;28;20436;-72
2022/12/11 07:41:00;;;;;;;17.10;12.23;;;;;;;-1.55;100.00;97460.66;5096738;28;20567;-72
2022/12/11 07:43:26;;;;;;;14.97;11.90;;;;;;;-1.47;100.00;97473.72;5096910;28;20428;-72
2022/12/11 07:45:53;;;;;;;17.47;12.20;;;;;;;-1.51;100.00;97474.19;5096828;28;20440;-72
2022/12/11 07:48:19;;;;;;;17.67;12.03;;;;;;;-1.54;100.00;97483.13;5096420;28;20697;-72
2022/12/11 07:50:45;;;;;;;17.10;12.67;;;;;;;-1.34;100.00;97478.47;5096483;28;20451;-72
2022/12/11 07:53:12;;;;;;;15.37;12.33;;;;;;;-1.27;100.00;97475.06;5096749;28;20424;-71
2022/12/11 07:55:38;;;;;;;17.53;11.77;;;;;;;-1.37;100.00;97471.78;5096168;28;20204;-72
2022/12/11 07:58:04;;;;;;;14.70;11.60;;;;;;;-1.41;100.00;97465.25;5096638;28;20644;-72
2022/12/11 08:00:31;;;;;;;16.13;11.80;;;;;;;-1.28;100.00;97473.44;5096522;28;20522;-72
2022/12/11 08:02:57;;;;;;;17.00;12.37;;;;;;;-1.31;100.00;97459.91;5096299;28;20670;-72
2022/12/11 08:05:24;;;;;;;15.67;12.70;;;;;;;-1.22;100.00;97464.97;5096221;28;20436;-72
2022/12/11 08:07:50;;;;;;;17.30;12.70;;;;;;;-1.07;100.00;97467.78;5096129;28;20732;-72
2022/12/11 08:10:17;;;;;;;16.23;12.47;;;;;;;-0.98;100.00;97470.22;5095983;28;20204;-72
2022/12/11 08:12:43;;;;;;;16.33;12.73;;;;;;;-0.94;100.00;97462.91;5096391;28;20513;-72
2022/12/11 08:15:10;;;;;;;14.00;11.23;;;;;;;-0.89;100.00;97458.00;5096337;28;20210;-72
2022/12/11 08:17:36;;;;;;;17.30;12.70;;;;;;;-0.90;100.00;97465.00;5096197;28;20204;-72
2022/12/11 08:20:03;;;;;;;14.90;11.80;;;;;;;-0.76;100.00;97464.34;5096166;28;20208;-72
2022/12/11 08:22:29;;;;;;;16.43;11.20;;;;;;;-0.78;100.00;97466.31;5095856;28;20235;-72
2022/12/11 08:24:56;;;;;;;15.93;11.77;;;;;;;-0.61;100.00;97452.31;5096504;28;20200;-72
2022/12/11 08:27:22;;;;;;;16.50;12.30;;;;;;;-0.64;100.00;97464.84;5096042;28;20214;-71
2022/12/11 08:29:48;;;;;;;14.93;12.27;;;;;;;-0.76;100.00;97466.97;5095719;28;20553;-72
2022/12/11 08:32:15;;;;;;;15.00;11.50;;;;;;;-0.70;100.00;97468.94;5095659;28;20234;-71
2022/12/11 08:34:42;;;;;;;17.87;12.70;;;;;;;-0.84;100.00;97461.78;5095833;28;20211;-71
2022/12/11 08:37:08;;;;;;;16.53;12.73;;;;;;;-0.96;100.00;97464.84;5095777;28;20207;-72
2022/12/11 08:39:35;;;;;;;17.40;13.20;;;;;;;-0.85;100.00;97467.94;5095423;28;20222;-72
2022/12/11 08:42:01;;;;;;;16.67;12.60;;;;;;;-0.98;100.00;97467.59;5095513;28;20232;-71
2022/12/11 08:44:28;;;;;;;18.17;13.37;;;;;;;-1.01;100.00;97475.78;5095523;28;20211;-72
2022/12/11 08:46:54;;;;;;;15.83;12.67;;;;;;;-0.77;100.00;97478.38;5095960;28;20655;-72
2022/12/11 08:49:21;;;;;;;15.93;12.57;;;;;;;-0.95;100.00;97475.13;5094706;28;20210;-72
2022/12/11 08:51:47;;;;;;;18.83;13.50;;;;;;;-0.84;100.00;97471.38;5095240;28;20232;-72
2022/12/11 08:54:13;;;;;;;17.00;13.13;;;;;;;-0.91;100.00;97478.22;5095561;28;20214;-72
2022/12/11 08:56:40;;;;;;;18.60;13.70;;;;;;;-0.77;100.00;97472.38;5095558;28;20215;-71
2022/12/11 08:59:06;;;;;;;18.47;13.80;;;;;;;-0.77;100.00;97461.94;5095455;28;20290;-72
2022/12/11 09:01:32;;;;;;;16.73;13.53;;;;;;;-0.93;100.00;97461.91;5095138;28;20257;-72
2022/12/11 09:03:59;;;;;;;17.70;13.67;;;;;;;-0.84;100.00;97461.78;5095200;28;20200;-72
2022/12/11 09:06:28;;;;;;;18.57;14.20;;;;;;;-0.78;100.00;97453.28;5094882;28;20212;-72
2022/12/11 09:08:55;;;;;;;16.63;13.47;;;;;;;-0.74;100.00;97459.81;5094774;28;20677;-72
2022/12/11 09:11:24;;;;;;;19.00;13.50;;;;;;;-0.57;100.00;97452.78;5095016;28;20216;-72
2022/12/11 09:13:51;;;;;;;19.43;14.30;;;;;;;-0.53;100.00;97457.50;5095128;28;20210;-72
2022/12/11 09:16:20;;;;;;;17.33;13.50;;;;;;;-0.43;100.00;97454.72;5094757;28;20639;-72
2022/12/11 09:18:48;;;;;;;17.33;13.67;;;;;;;-0.47;100.00;97454.25;5095009;28;20204;-72
2022/12/11 09:21:16;;;;;;;18.67;13.50;;;;;;;-0.41;100.00;97448.34;5094349;28;20704;-72
2022/12/11 09:23:43;;;;;;;18.03;14.27;;;;;;;-0.33;100.00;97450.13;5094693;28;20208;-72
2022/12/11 09:26:13;;;;;;;18.70;14.33;;;;;;;-0.23;100.00;97454.19;5094394;28;20200;-72
2022/12/11 09:28:41;;;;;;;20.60;14.77;;;;;;;-0.12;100.00;97451.22;5094525;28;20586;-72
2022/12/11 09:31:10;;;;;;;19.23;13.90;;;;;;;-0.18;100.00;97448.50;5094365;28;20306;-71
2022/12/11 09:33:37;;;;;;;17.00;12.87;;;;;;;0.03;100.00;97455.78;5094800;28;20203;-72
2022/12/11 09:36:04;;;;;;;18.83;14.43;;;;;;;0.13;100.00;97451.97;5094803;28;20207;-72
2022/12/11 09:38:32;;;;;;;19.03;14.07;;;;;;;-0.04;100.00;97447.81;5094337;28;20211;-72
2022/12/11 09:40:59;;;;;;;16.33;13.13;;;;;;;-0.03;100.00;97446.81;5094398;28;20239;-71
2022/12/11 09:44:02;;;;;;;19.37;13.30;;;;;;;-0.04;100.00;97447.81;5094330;28;20235;-72
2022/12/11 09:46:29;;;;;;;19.67;13.53;;;;;;;0.30;100.00;97448.31;5094282;28;20199;-72
2022/12/11 09:48:56;;;;;;;20.17;14.93;;;;;;;0.44;100.00;97444.97;5094336;28;20214;-72
2022/12/11 09:51:46;;;;;;;19.50;13.93;;;;;;;0.81;100.00;97441.69;5094003;28;20235;-72
2022/12/11 09:54:14;;;;;;;17.37;14.03;;;;;;;0.81;100.00;97442.47;5094289;28;20206;-72
2022/12/11 09:57:02;;;;;;;17.73;13.83;;;;;;;0.85;100.00;97453.44;5094009;28;20214;-72
2022/12/11 09:59:47;;;;;;;18.73;13.23;;;;;;;0.34;100.00;97441.78;5094016;28;20199;-72
2022/12/11 10:02:22;;;;;;;17.80;13.67;;;;;;;0.15;100.00;97450.03;5093779;28;20239;-72
2022/12/11 10:05:20;;;;;;;16.77;13.93;;;;;;;0.13;100.00;97444.13;5093870;28;20324;-72
2022/12/11 10:08:11;;;;;;;16.80;13.47;;;;;;;0.18;100.00;97440.03;5094065;28;20192;-72
2022/12/11 10:10:46;;;;;;;19.93;14.03;;;;;;;0.31;100.00;97439.47;5093932;28;20238;-72
2022/12/11 10:13:21;;;;;;;17.20;13.40;;;;;;;0.51;100.00;97438.09;5093726;28;20193;-72
2022/12/11 10:15:51;;;;;;;17.57;14.10;;;;;;;0.56;100.00;97437.56;5094006;28;20187;-72
2022/12/11 10:18:21;;;;;;;19.70;13.77;;;;;;;0.51;100.00;97430.25;5093870;28;20261;-72
2022/12/11 10:20:51;;;;;;;16.13;13.73;;;;;;;0.56;100.00;97425.31;5093767;28;20224;-72
2022/12/11 10:23:21;;;;;;;17.70;14.60;;;;;;;0.33;100.00;97425.25;5093405;28;20210;-72
2022/12/11 10:25:58;;;;;;;18.50;14.60;;;;;;;0.41;100.00;97413.16;5093611;28;20211;-72
2022/12/11 10:28:27;;;;;;;18.40;14.27;;;;;;;0.43;100.00;97416.38;5093254;28;20197;-72
2022/12/11 10:31:18;;;;;;;19.77;15.27;;;;;;;0.47;100.00;97411.47;5093276;28;20729;-72
2022/12/11 10:33:55;;;;;;;18.30;15.10;;;;;;;0.51;100.00;97411.13;5093358;28;20215;-72
2022/12/11 10:36:35;;;;;;;17.40;14.13;;;;;;;0.68;100.00;97405.63;5093666;28;20184;-72
2022/12/11 10:39:02;;;;;;;19.97;14.70;;;;;;;0.59;100.00;97404.06;5093590;28;20198;-72
2022/12/11 10:41:39;;;;;;;16.57;13.27;;;;;;;0.71;100.00;97405.28;5093295;28;20314;-72
2022/12/11 10:44:16;;;;;;;20.27;13.80;;;;;;;0.70;100.00;97403.66;5093463;28;20213;-72
2022/12/11 10:46:43;;;;;;;19.07;13.67;;;;;;;0.84;100.00;97396.84;5093578;28;20194;-72
2022/12/11 10:49:21;;;;;;;17.33;14.30;;;;;;;0.71;100.00;97404.47;5093514;28;20574;-72
2022/12/11 10:51:47;;;;;;;17.60;13.77;;;;;;;0.47;100.00;97395.75;5092991;28;20606;-72
2022/12/11 10:54:26;;;;;;;18.30;14.67;;;;;;;0.64;100.00;97387.84;5093442;28;20230;-72
2022/12/11 10:56:53;;;;;;;18.93;14.77;;;;;;;0.87;100.00;97380.81;5093407;28;20209;-72
2022/12/11 10:59:30;;;;;;;19.23;14.60;;;;;;;1.06;100.00;97388.19;5093085;28;20208;-72
2022/12/11 11:01:57;;;;;;;21.27;15.57;;;;;;;0.82;100.00;97383.13;5092685;28;20226;-72
2022/12/11 11:04:31;;;;;;;18.87;15.03;;;;;;;0.86;100.00;97384.41;5093057;28;20203;-72
2022/12/11 11:07:12;;;;;;;16.97;13.73;;;;;;;0.88;100.00;97379.81;5093224;28;20192;-72
2022/12/11 11:09:39;;;;;;;17.83;13.90;;;;;;;0.59;100.00;97380.53;5093275;28;20217;-72
2022/12/11 11:12:25;;;;;;;16.77;13.43;;;;;;;0.89;100.00;97377.03;5093050;28;20223;-72
2022/12/11 11:15:19;;;;;;;17.13;14.07;;;;;;;0.91;100.00;97376.84;5097078;28;20234;-72
2022/12/11 11:17:54;;;;;;;17.97;14.03;;;;;;;0.86;100.00;97373.94;5089057;28;20290;-72
2022/12/11 11:20:29;;;;;;;18.30;14.40;;;;;;;0.93;100.00;97369.63;5096791;28;20203;-72
2022/12/11 11:22:59;;;;;;;17.40;14.63;;;;;;;1.02;100.00;97363.34;5096806;28;20795;-72
2022/12/11 11:25:28;;;;;;;17.77;12.63;;;;;;;1.18;100.00;97361.44;5097142;28;20210;-72
2022/12/11 11:28:02;;;;;;;17.07;13.37;;;;;;;1.40;99.29;97365.78;5096860;28;20200;-72
2022/12/11 11:30:31;;;;;;;19.07;13.60;;;;;;;1.21;99.86;97370.72;5097485;28;20192;-72
2022/12/11 11:33:02;;;;;;;16.10;12.67;;;;;;;0.92;98.55;97365.41;5097047;28;20229;-72